Time;durP1;ratioP1;P1;durP2;ratioP2;P2;SDS_P1;SDS_P2;PMS_P1;PMS_P2;Temp;Humidity;BMP_temperature;BMP_pressure;BME280_temperature;BME280_humidity;BME280_pressure;Samples;Min_cycle;Max_cycle;Signal;HPM_P1;HPM_P2
2023/04/28 00:02:07;;;;;;;3.05;2.28;;;26.80;99.90;;;;;;4991726;28;20106;-58
2023/04/28 00:04:33;;;;;;;3.90;2.25;;;26.80;99.90;;;;;;4990442;28;20390;-57
2023/04/28 00:06:58;;;;;;;3.42;1.83;;;26.70;99.90;;;;;;4992779;28;20042;-57
2023/04/28 00:09:24;;;;;;;3.28;2.42;;;26.70;99.90;;;;;;4992712;28;20101;-58
2023/04/28 00:11:50;;;;;;;4.90;2.33;;;26.70;99.90;;;;;;4990263;28;20034;-58
2023/04/28 00:14:16;;;;;;;2.95;2.08;;;26.70;99.90;;;;;;4992307;28;20072;-58
2023/04/28 00:16:41;;;;;;;3.10;2.42;;;26.70;99.90;;;;;;4989550;28;20023;-59
2023/04/28 00:19:07;;;;;;;3.22;2.13;;;26.70;99.90;;;;;;4992190;28;20476;-58
2023/04/28 00:21:33;;;;;;;3.88;2.40;;;26.70;99.90;;;;;;4992512;28;20085;-58
2023/04/28 00:23:59;;;;;;;4.10;2.08;;;26.70;99.90;;;;;;4992201;28;20488;-58
2023/04/28 00:26:25;;;;;;;3.40;2.15;;;26.70;99.90;;;;;;4991954;28;20034;-58
2023/04/28 00:28:50;;;;;;;2.20;2.00;;;26.70;99.90;;;;;;4992051;28;20097;-59
2023/04/28 00:31:16;;;;;;;3.78;2.10;;;26.60;99.90;;;;;;4992292;28;20033;-58
2023/04/28 00:33:43;;;;;;;2.95;2.20;;;26.70;99.90;;;;;;4995608;28;20014;-58
2023/04/28 00:36:10;;;;;;;2.35;1.80;;;26.70;99.90;;;;;;5002991;28;20484;-59
2023/04/28 00:38:36;;;;;;;2.38;1.77;;;26.70;99.90;;;;;;5007763;28;20387;-58
2023/04/28 00:41:01;;;;;;;2.38;2.05;;;26.70;99.90;;;;;;5011735;28;20088;-58
2023/04/28 00:43:27;;;;;;;3.22;2.10;;;26.70;99.90;;;;;;4998251;28;20644;-58
2023/04/28 00:45:53;;;;;;;3.28;2.10;;;26.70;99.90;;;;;;5011504;28;20034;-58
2023/04/28 00:48:19;;;;;;;2.72;2.00;;;26.60;99.90;;;;;;5011414;28;20029;-58
2023/04/28 00:50:46;;;;;;;3.83;2.15;;;26.60;99.90;;;;;;5011248;28;20454;-58
2023/04/28 00:53:13;;;;;;;2.72;2.00;;;26.60;99.90;;;;;;5011613;28;20028;-59
2023/04/28 00:55:39;;;;;;;2.90;2.30;;;26.70;99.90;;;;;;5011389;28;20036;-58
2023/04/28 00:58:06;;;;;;;3.13;2.40;;;26.60;99.90;;;;;;4991988;28;20034;-58
2023/04/28 01:00:32;;;;;;;4.57;2.08;;;26.60;99.90;;;;;;4992534;28;20506;-58
2023/04/28 01:02:58;;;;;;;3.50;1.90;;;26.60;99.90;;;;;;5000088;28;20488;-58
2023/04/28 01:05:28;;;;;;;3.17;2.20;;;26.60;99.90;;;;;;5014504;28;20025;-58
2023/04/28 01:07:53;;;;;;;4.07;2.35;;;26.60;99.90;;;;;;5015112;28;20083;-59
2023/04/28 01:10:20;;;;;;;3.20;2.20;;;26.60;99.90;;;;;;5015125;28;20030;-58
2023/04/28 01:12:45;;;;;;;3.38;2.22;;;26.60;99.90;;;;;;5014821;28;20021;-58
2023/04/28 01:15:20;;;;;;;2.50;2.15;;;26.60;99.90;;;;;;5014867;28;20030;-58
2023/04/28 01:17:46;;;;;;;2.97;2.22;;;26.60;99.90;;;;;;5014978;28;20021;-58
2023/04/28 01:20:13;;;;;;;3.08;2.30;;;26.60;99.90;;;;;;5014527;28;20456;-58
2023/04/28 01:22:39;;;;;;;3.55;2.25;;;26.60;99.90;;;;;;5005570;28;20022;-57
2023/04/28 01:25:05;;;;;;;2.58;1.98;;;26.60;99.90;;;;;;4994914;28;20427;-57
2023/04/28 01:27:31;;;;;;;4.47;2.20;;;26.60;99.90;;;;;;4994961;28;20077;-57
2023/04/28 01:29:57;;;;;;;2.92;2.13;;;26.60;99.90;;;;;;5008467;28;20469;-58
2023/04/28 01:32:23;;;;;;;3.63;2.17;;;26.60;99.90;;;;;;5014666;28;20021;-57
2023/04/28 01:34:48;;;;;;;2.65;2.10;;;26.60;99.90;;;;;;5014006;28;20022;-58
2023/04/28 01:37:14;;;;;;;3.30;2.45;;;26.60;99.90;;;;;;5014500;28;20029;-57
2023/04/28 01:39:40;;;;;;;2.30;1.95;;;26.60;99.90;;;;;;5014303;28;20026;-57
2023/04/28 01:42:06;;;;;;;3.22;2.50;;;26.60;99.90;;;;;;5014442;28;20013;-58
2023/04/28 01:44:32;;;;;;;3.00;2.15;;;26.60;99.90;;;;;;5014239;28;20475;-58
2023/04/28 01:46:58;;;;;;;3.05;2.40;;;26.50;99.90;;;;;;5013591;28;20454;-59
2023/04/28 01:49:23;;;;;;;3.53;2.05;;;26.50;99.90;;;;;;5014306;28;20427;-58
2023/04/28 01:51:49;;;;;;;3.58;2.05;;;26.50;99.90;;;;;;5014035;28;20061;-58
2023/04/28 01:54:15;;;;;;;2.40;1.95;;;26.60;99.90;;;;;;5014241;28;20125;-58
2023/04/28 01:56:41;;;;;;;2.45;1.85;;;26.50;99.90;;;;;;5013986;28;20045;-58
2023/04/28 01:59:09;;;;;;;3.60;2.38;;;26.50;99.90;;;;;;5014283;28;20109;-58
2023/04/28 02:01:35;;;;;;;2.03;1.70;;;26.50;99.90;;;;;;5014052;28;20052;-58
2023/04/28 02:04:01;;;;;;;3.03;2.65;;;26.60;99.90;;;;;;5013859;28;20361;-57
2023/04/28 02:06:27;;;;;;;4.55;2.45;;;26.60;99.90;;;;;;5013810;28;20121;-58
2023/04/28 02:08:52;;;;;;;2.45;2.20;;;26.60;99.90;;;;;;5000530;28;20368;-59
2023/04/28 02:11:18;;;;;;;2.92;2.25;;;26.50;99.90;;;;;;5012546;28;20022;-57
2023/04/28 02:13:44;;;;;;;3.15;2.13;;;26.50;99.90;;;;;;5013634;28;20109;-57
2023/04/28 02:16:10;;;;;;;2.88;2.17;;;26.60;99.90;;;;;;5013841;28;20029;-58
2023/04/28 02:18:35;;;;;;;3.33;2.17;;;26.50;99.90;;;;;;5013676;28;20101;-58
2023/04/28 02:21:10;;;;;;;4.32;2.38;;;26.50;99.90;;;;;;5012359;28;20018;-59
2023/04/28 02:23:36;;;;;;;3.05;1.90;;;26.50;99.90;;;;;;5013174;28;20038;-58
2023/04/28 02:26:02;;;;;;;5.90;2.78;;;26.50;99.90;;;;;;5013422;28;20038;-58
2023/04/28 02:28:29;;;;;;;5.13;2.95;;;26.50;99.90;;;;;;5000164;28;20030;-58
2023/04/28 02:31:08;;;;;;;2.83;2.40;;;26.50;99.90;;;;;;4994149;28;20460;-58
2023/04/28 02:33:35;;;;;;;4.80;3.42;;;26.50;99.90;;;;;;4994600;28;20173;-57
2023/04/28 02:36:02;;;;;;;3.72;2.80;;;26.50;99.90;;;;;;5013543;28;20427;-58
2023/04/28 02:38:28;;;;;;;5.05;3.40;;;26.50;99.90;;;;;;5013338;28;20014;-58
2023/04/28 02:41:04;;;;;;;6.75;3.63;;;26.50;99.90;;;;;;5013643;28;20424;-58
2023/04/28 02:43:33;;;;;;;3.30;3.00;;;26.50;99.90;;;;;;5011651;28;20028;-58
2023/04/28 02:45:59;;;;;;;4.50;3.00;;;26.50;99.90;;;;;;5013076;28;20026;-58
2023/04/28 02:48:25;;;;;;;5.57;3.22;;;26.50;99.90;;;;;;5000330;28;20033;-57
2023/04/28 02:50:52;;;;;;;4.93;3.30;;;26.50;99.90;;;;;;5013084;28;20092;-57
2023/04/28 02:53:18;;;;;;;4.53;3.10;;;26.50;99.90;;;;;;5013344;28;20049;-57
2023/04/28 02:55:45;;;;;;;4.22;3.17;;;26.50;99.90;;;;;;4994899;28;20029;-58
2023/04/28 02:58:11;;;;;;;3.72;3.15;;;26.50;99.90;;;;;;4993813;28;20058;-58
2023/04/28 03:00:37;;;;;;;4.68;3.17;;;26.50;99.90;;;;;;5024217;22;20045;-48
2023/04/28 03:03:02;;;;;;;4.32;3.13;;;26.50;99.90;;;;;;5032802;28;20065;-48
2023/04/28 03:05:28;;;;;;;3.78;2.92;;;26.50;99.90;;;;;;5032007;28;20016;-48
2023/04/28 03:07:54;;;;;;;4.53;2.97;;;26.50;99.90;;;;;;5032911;28;20051;-48
2023/04/28 03:10:20;;;;;;;3.72;3.10;;;26.50;99.90;;;;;;5032712;28;20044;-48
2023/04/28 03:12:46;;;;;;;5.47;3.33;;;26.40;99.90;;;;;;5032421;28;20017;-48
2023/04/28 03:15:12;;;;;;;4.55;3.28;;;26.50;99.90;;;;;;5032837;28;20048;-48
2023/04/28 03:17:40;;;;;;;4.53;3.25;;;26.50;99.90;;;;;;5032465;28;20487;-48
2023/04/28 03:20:07;;;;;;;5.32;3.65;;;26.50;99.90;;;;;;5032119;28;20014;-48
2023/04/28 03:22:34;;;;;;;3.55;3.22;;;26.50;99.90;;;;;;5032527;28;20029;-49
2023/04/28 03:24:59;;;;;;;4.93;3.33;;;26.40;99.90;;;;;;5031597;28;20108;-47
2023/04/28 03:27:25;;;;;;;4.20;3.10;;;26.40;99.90;;;;;;5032329;28;20136;-47
2023/04/28 03:29:51;;;;;;;4.85;3.17;;;26.40;99.90;;;;;;5031021;28;20481;-47
2023/04/28 03:32:17;;;;;;;4.45;3.22;;;26.40;99.90;;;;;;5032216;28;20100;-46
2023/04/28 03:34:43;;;;;;;5.15;3.90;;;26.40;99.90;;;;;;5032376;28;20064;-47
2023/04/28 03:37:09;;;;;;;3.90;3.20;;;26.40;99.90;;;;;;5032133;28;20013;-47
2023/04/28 03:39:35;;;;;;;3.55;3.08;;;26.40;99.90;;;;;;5032291;28;20021;-46
2023/04/28 03:42:01;;;;;;;5.65;3.70;;;26.40;99.90;;;;;;5030672;28;20365;-47
2023/04/28 03:44:27;;;;;;;5.20;3.38;;;26.40;99.90;;;;;;5032159;28;20021;-47
2023/04/28 03:46:53;;;;;;;5.15;3.88;;;26.40;99.90;;;;;;5031768;28;20041;-46
2023/04/28 03:49:18;;;;;;;5.65;4.50;;;26.40;99.90;;;;;;5031908;28;20028;-46
2023/04/28 03:51:44;;;;;;;6.55;4.40;;;26.40;99.90;;;;;;5031845;28;20025;-46
2023/04/28 03:54:10;;;;;;;5.40;4.15;;;26.40;99.90;;;;;;5032160;28;20026;-47
2023/04/28 03:56:36;;;;;;;5.38;4.28;;;26.40;99.90;;;;;;5031881;28;20013;-46
2023/04/28 03:59:02;;;;;;;6.43;4.38;;;26.40;99.90;;;;;;5031679;28;20372;-47
2023/04/28 04:01:28;;;;;;;5.97;4.22;;;26.40;99.90;;;;;;5032940;28;20057;-48
2023/04/28 04:03:54;;;;;;;5.85;4.28;;;26.30;99.90;;;;;;5031585;28;20079;-47
2023/04/28 04:06:21;;;;;;;6.05;5.00;;;26.40;99.90;;;;;;5031821;28;20087;-47
2023/04/28 04:08:47;;;;;;;7.47;4.85;;;26.30;99.90;;;;;;5031973;28;20049;-46
2023/04/28 04:11:12;;;;;;;6.88;5.35;;;26.30;99.90;;;;;;5031607;28;20432;-46
2023/04/28 04:13:38;;;;;;;6.50;5.22;;;26.30;99.90;;;;;;5031691;28;20120;-47
2023/04/28 04:16:04;;;;;;;5.70;4.60;;;26.40;99.90;;;;;;5030629;28;20031;-47
2023/04/28 04:18:30;;;;;;;5.47;4.50;;;26.40;99.90;;;;;;5030492;28;20037;-47
2023/04/28 04:20:56;;;;;;;6.22;4.82;;;26.30;99.90;;;;;;5031660;28;20026;-46
2023/04/28 04:23:22;;;;;;;5.60;4.78;;;26.30;99.90;;;;;;5031158;28;20028;-46
2023/04/28 04:25:49;;;;;;;6.18;4.88;;;26.40;99.90;;;;;;5000032;28;20033;-47
2023/04/28 04:28:15;;;;;;;6.28;5.15;;;26.40;99.90;;;;;;5031763;28;20033;-47
2023/04/28 04:30:41;;;;;;;6.05;5.00;;;26.30;99.90;;;;;;5030991;28;20483;-46
2023/04/28 04:33:07;;;;;;;5.82;4.80;;;26.30;99.90;;;;;;5031777;28;20040;-46
2023/04/28 04:35:33;;;;;;;7.32;4.80;;;26.30;99.90;;;;;;5031838;28;20032;-47
2023/04/28 04:38:00;;;;;;;6.90;4.18;;;26.30;99.90;;;;;;5035650;28;20025;-47
2023/04/28 04:40:25;;;;;;;7.88;4.88;;;26.30;99.90;;;;;;5035578;28;20040;-46
2023/04/28 04:42:51;;;;;;;5.43;4.43;;;26.30;99.90;;;;;;5034884;28;20479;-47
2023/04/28 04:45:17;;;;;;;5.85;4.40;;;26.30;99.90;;;;;;5035441;28;20030;-47
2023/04/28 04:47:43;;;;;;;4.82;4.13;;;26.30;99.90;;;;;;5009239;28;20022;-47
2023/04/28 04:50:10;;;;;;;5.45;4.22;;;26.30;99.90;;;;;;5034804;28;20028;-47
2023/04/28 04:52:36;;;;;;;4.72;3.78;;;26.30;99.90;;;;;;5001179;28;20088;-47
2023/04/28 04:55:02;;;;;;;5.03;3.92;;;26.30;99.90;;;;;;5027082;28;20414;-46
2023/04/28 04:57:28;;;;;;;4.85;3.58;;;26.30;99.90;;;;;;5034811;28;20028;-46
2023/04/28 04:59:54;;;;;;;4.50;3.58;;;26.30;99.90;;;;;;5034981;28;20053;-46
2023/04/28 05:02:20;;;;;;;4.45;3.55;;;26.30;99.90;;;;;;5035306;28;20060;-46
2023/04/28 05:04:45;;;;;;;4.15;3.40;;;26.30;99.90;;;;;;5034977;28;20029;-46
2023/04/28 05:07:11;;;;;;;5.13;3.53;;;26.30;99.90;;;;;;5034789;28;20045;-46
2023/04/28 05:09:37;;;;;;;4.20;3.45;;;26.30;99.90;;;;;;5033489;28;20071;-46
2023/04/28 05:12:03;;;;;;;5.43;3.90;;;26.30;99.90;;;;;;5033420;28;20066;-46
2023/04/28 05:14:29;;;;;;;4.47;3.45;;;26.30;99.90;;;;;;5008730;28;20017;-47
2023/04/28 05:16:55;;;;;;;5.13;3.67;;;26.30;99.90;;;;;;5034571;28;20025;-46
2023/04/28 05:19:21;;;;;;;4.63;3.50;;;26.30;99.90;;;;;;5034564;28;20108;-46
2023/04/28 05:21:47;;;;;;;5.55;3.55;;;26.30;99.90;;;;;;5033701;28;20159;-46
2023/04/28 05:24:16;;;;;;;4.15;3.58;;;26.30;99.90;;;;;;5033175;28;20026;-47
2023/04/28 05:26:41;;;;;;;4.72;3.78;;;26.30;99.90;;;;;;5034462;28;20037;-46
2023/04/28 05:29:07;;;;;;;3.95;3.53;;;26.30;99.90;;;;;;5034640;28;20412;-46
2023/04/28 05:31:33;;;;;;;4.45;3.15;;;26.30;99.90;;;;;;5034469;28;20037;-47
2023/04/28 05:33:59;;;;;;;4.32;3.45;;;26.30;99.90;;;;;;5034082;28;20021;-48
2023/04/28 05:36:25;;;;;;;5.90;3.58;;;26.30;99.90;;;;;;5034337;28;20021;-48
2023/04/28 05:38:51;;;;;;;4.38;3.50;;;26.30;99.90;;;;;;5034483;28;20032;-48
2023/04/28 05:41:17;;;;;;;4.03;3.38;;;26.30;99.90;;;;;;5034003;28;20029;-47
2023/04/28 05:43:43;;;;;;;5.35;3.35;;;26.30;99.90;;;;;;5034221;28;20426;-48
2023/04/28 05:46:08;;;;;;;4.80;3.40;;;26.30;99.90;;;;;;5033997;28;20080;-48
2023/04/28 05:48:34;;;;;;;4.55;2.88;;;26.30;99.90;;;;;;5032991;28;20021;-48
2023/04/28 05:51:00;;;;;;;4.63;3.63;;;26.30;99.90;;;;;;5028273;28;20518;-47
2023/04/28 05:53:26;;;;;;;3.92;3.33;;;26.30;99.90;;;;;;5026955;28;20021;-47
2023/04/28 05:55:52;;;;;;;4.40;2.97;;;26.20;99.90;;;;;;5033785;28;20112;-48
2023/04/28 05:58:18;;;;;;;4.45;3.47;;;26.30;99.90;;;;;;5033896;28;20488;-47
2023/04/28 06:00:43;;;;;;;3.40;3.05;;;26.30;99.90;;;;;;5033765;28;20041;-48
2023/04/28 06:03:13;;;;;;;3.20;2.80;;;26.30;99.90;;;;;;5034298;28;20049;-48
2023/04/28 06:05:39;;;;;;;3.70;3.20;;;26.30;99.90;;;;;;5017948;28;20057;-48
2023/04/28 06:08:06;;;;;;;4.00;2.97;;;26.30;99.90;;;;;;5033861;28;20053;-48
2023/04/28 06:10:32;;;;;;;;;;;26.20;99.90;;;;;;5032745;28;20116;-48
2023/04/28 06:12:57;;;;;;;3.13;2.40;;;26.30;99.90;;;;;;5033552;28;20000;-48
2023/04/28 06:15:23;;;;;;;4.47;3.13;;;26.30;99.90;;;;;;5033624;28;20022;-48
2023/04/28 06:17:50;;;;;;;4.70;2.65;;;26.30;99.90;;;;;;5033297;28;20025;-48
2023/04/28 06:20:16;;;;;;;4.40;3.55;;;26.30;99.90;;;;;;5033476;28;20024;-46
2023/04/28 06:22:42;;;;;;;3.85;3.10;;;26.30;99.90;;;;;;5033439;28;20071;-47
2023/04/28 06:25:08;;;;;;;4.90;3.13;;;26.30;99.90;;;;;;5032285;28;20030;-47
2023/04/28 06:27:34;;;;;;;4.25;2.92;;;26.30;99.90;;;;;;5033349;28;20483;-47
2023/04/28 06:29:59;;;;;;;4.15;3.50;;;26.30;99.90;;;;;;5033154;28;20021;-47
2023/04/28 06:32:25;;;;;;;4.50;3.15;;;26.30;99.90;;;;;;5033375;28;20021;-46
2023/04/28 06:34:51;;;;;;;3.55;2.60;;;26.30;99.90;;;;;;5033387;28;20079;-48
2023/04/28 06:37:17;;;;;;;3.67;3.00;;;26.30;99.90;;;;;;5033198;28;20022;-47
2023/04/28 06:39:43;;;;;;;3.75;2.78;;;26.30;99.90;;;;;;5033265;28;20022;-47
2023/04/28 06:42:09;;;;;;;3.40;3.00;;;26.30;99.90;;;;;;5033015;28;20017;-47
2023/04/28 06:44:35;;;;;;;4.75;3.13;;;26.30;99.90;;;;;;5032509;28;20115;-47
2023/04/28 06:47:01;;;;;;;3.85;3.10;;;26.30;99.90;;;;;;5030670;28;20045;-47
2023/04/28 06:49:26;;;;;;;3.47;2.55;;;26.30;99.90;;;;;;5032246;28;20387;-47
2023/04/28 06:51:52;;;;;;;3.25;2.42;;;26.30;99.90;;;;;;5032840;28;20033;-47
2023/04/28 06:54:18;;;;;;;4.75;2.65;;;26.30;99.90;;;;;;5033031;28;20061;-46
2023/04/28 06:56:43;;;;;;;3.45;3.05;;;26.30;99.90;;;;;;5028780;28;20048;-47
2023/04/28 06:59:09;;;;;;;3.58;2.63;;;26.30;99.90;;;;;;5027372;28;20022;-47
2023/04/28 07:01:35;;;;;;;5.88;4.18;;;26.30;99.90;;;;;;5031562;28;20096;-48
2023/04/28 07:04:01;;;;;;;4.20;2.80;;;26.30;99.90;;;;;;5031857;28;20034;-47
2023/04/28 07:06:28;;;;;;;8.77;3.50;;;26.30;99.90;;;;;;5032379;28;20100;-48
2023/04/28 07:08:54;;;;;;;15.32;5.03;;;26.30;99.90;;;;;;5031334;28;20531;-47
2023/04/28 07:11:20;;;;;;;10.73;4.03;;;26.30;99.90;;;;;;5031237;28;20116;-47
2023/04/28 07:13:48;;;;;;;8.95;4.00;;;26.30;99.90;;;;;;5026873;28;20025;-47
2023/04/28 07:16:14;;;;;;;13.38;4.43;;;26.30;99.90;;;;;;5032300;28;20479;-47
2023/04/28 07:18:40;;;;;;;14.00;4.50;;;26.30;99.90;;;;;;5031935;28;20083;-48
2023/04/28 07:21:05;;;;;;;12.15;3.83;;;26.20;99.90;;;;;;5032230;28;20456;-48
2023/04/28 07:23:31;;;;;;;9.20;3.28;;;26.20;99.90;;;;;;5030943;28;20030;-48
2023/04/28 07:25:57;;;;;;;17.50;3.78;;;26.20;99.90;;;;;;5031118;28;20029;-48
2023/04/28 07:28:23;;;;;;;15.70;4.57;;;26.20;99.90;;;;;;5032444;28;20155;-48
2023/04/28 07:30:49;;;;;;;19.85;4.30;;;26.20;99.90;;;;;;5031003;28;20096;-48
2023/04/28 07:33:15;;;;;;;18.45;4.60;;;26.20;99.90;;;;;;5018164;28;20472;-49
2023/04/28 07:35:41;;;;;;;18.17;4.55;;;26.20;99.90;;;;;;5031705;28;20391;-48
2023/04/28 07:38:06;;;;;;;17.83;4.47;;;26.20;99.90;;;;;;5032136;28;20029;-49
2023/04/28 07:40:32;;;;;;;19.33;3.58;;;26.10;99.90;;;;;;5031625;28;20107;-48
2023/04/28 07:42:58;;;;;;;17.05;3.85;;;26.10;99.90;;;;;;5031944;28;20476;-48
2023/04/28 07:45:25;;;;;;;20.35;3.78;;;26.10;99.90;;;;;;5005797;28;20037;-46
2023/04/28 07:47:50;;;;;;;16.27;3.40;;;26.00;99.90;;;;;;5012044;28;20117;-47
2023/04/28 07:50:16;;;;;;;12.85;3.85;;;26.00;99.90;;;;;;5010405;28;20347;-46
2023/04/28 07:52:43;;;;;;;14.27;3.10;;;25.80;99.90;;;;;;5011757;28;20037;-47
2023/04/28 07:55:09;;;;;;;11.00;2.45;;;25.70;99.90;;;;;;5011661;28;20022;-47
2023/04/28 07:57:34;;;;;;;5.72;1.90;;;25.60;99.90;;;;;;5010113;28;20025;-47
2023/04/28 08:00:00;;;;;;;13.98;4.18;;;25.50;99.90;;;;;;4996877;28;20488;-47
2023/04/28 08:02:26;;;;;;;19.15;2.72;;;25.40;99.90;;;;;;5020630;28;20021;-47
2023/04/28 08:04:52;;;;;;;5.75;2.25;;;25.30;99.90;;;;;;5015879;28;20084;-48
2023/04/28 08:07:18;;;;;;;7.93;2.00;;;25.30;99.90;;;;;;5011944;28;20447;-47
2023/04/28 08:09:46;;;;;;;11.30;2.00;;;25.20;99.90;;;;;;5013981;28;20029;-47
2023/04/28 08:12:13;;;;;;;6.03;2.72;;;25.20;99.90;;;;;;5015313;28;20034;-48
2023/04/28 08:14:39;;;;;;;9.85;2.50;;;25.10;99.90;;;;;;5019358;28;20017;-47
2023/04/28 08:17:05;;;;;;;8.38;3.25;;;25.10;99.90;;;;;;5017076;28;20516;-47
2023/04/28 08:19:30;;;;;;;11.80;2.97;;;25.00;99.90;;;;;;5017688;28;20022;-47
2023/04/28 08:21:56;;;;;;;9.85;5.57;;;25.00;99.90;;;;;;5017899;28;20029;-46
2023/04/28 08:24:22;;;;;;;12.20;4.00;;;25.00;99.90;;;;;;5021608;28;20067;-47
2023/04/28 08:26:48;;;;;;;6.82;3.17;;;25.00;99.90;;;;;;5022311;28;20404;-47
2023/04/28 08:29:14;;;;;;;9.77;3.28;;;24.90;99.90;;;;;;5017656;28;20017;-47
2023/04/28 08:31:40;;;;;;;12.02;2.75;;;24.90;99.90;;;;;;5018402;28;20026;-47
2023/04/28 08:34:06;;;;;;;9.98;2.40;;;24.80;99.90;;;;;;5019325;28;20036;-47
2023/04/28 08:36:32;;;;;;;10.35;3.20;;;24.80;99.90;;;;;;5017049;28;20030;-47
2023/04/28 08:39:01;;;;;;;10.27;2.40;;;24.80;99.90;;;;;;5021575;28;20087;-47
2023/04/28 08:41:31;;;;;;;16.63;5.38;;;24.80;99.90;;;;;;5023820;28;20108;-47
2023/04/28 08:43:57;;;;;;;12.13;3.55;;;24.80;99.90;;;;;;5023092;28;20109;-47
2023/04/28 08:46:26;;;;;;;5.70;2.25;;;24.80;99.90;;;;;;5018912;28;20087;-47
2023/04/28 08:49:00;;;;;;;7.72;2.35;;;24.80;99.90;;;;;;5016254;28;20033;-47
2023/04/28 08:51:35;;;;;;;8.57;2.25;;;24.80;99.90;;;;;;5023997;28;20026;-46
2023/04/28 08:54:05;;;;;;;9.75;5.60;;;24.70;99.90;;;;;;5021932;28;20034;-46
2023/04/28 08:56:34;;;;;;;16.33;6.85;;;24.70;99.90;;;;;;5023791;28;20128;-46
2023/04/28 08:59:04;;;;;;;10.43;3.38;;;24.70;99.90;;;;;;5014816;28;20034;-46
2023/04/28 09:01:32;;;;;;;7.28;2.13;;;24.70;99.90;;;;;;5024590;28;20107;-46
2023/04/28 09:04:01;;;;;;;9.80;3.10;;;24.70;99.90;;;;;;5025666;28;20364;-47
2023/04/28 09:06:36;;;;;;;9.18;2.83;;;24.70;99.90;;;;;;5025744;28;20479;-47
2023/04/28 09:09:40;;;;;;;7.35;2.47;;;24.70;99.90;;;;;;5017285;28;20018;-47
2023/04/28 09:12:06;;;;;;;5.40;2.65;;;24.80;99.90;;;;;;4997875;28;20034;-48
2023/04/28 09:14:37;;;;;;;8.07;2.53;;;24.90;99.90;;;;;;4994749;28;20022;-48
2023/04/28 09:17:12;;;;;;;9.85;3.30;;;24.90;99.90;;;;;;5012027;28;20096;-48
2023/04/28 09:19:38;;;;;;;14.77;3.65;;;24.90;99.90;;;;;;5026166;28;20026;-48
2023/04/28 09:22:05;;;;;;;10.23;2.92;;;25.00;99.90;;;;;;5025062;28;20030;-47
2023/04/28 09:24:47;;;;;;;10.50;3.33;;;25.00;99.90;;;;;;5012998;28;20026;-48
2023/04/28 09:27:14;;;;;;;9.90;3.38;;;25.00;99.90;;;;;;5013521;28;20102;-48
2023/04/28 09:29:52;;;;;;;12.77;3.53;;;25.00;99.90;;;;;;5013917;28;20018;-47
2023/04/28 09:32:22;;;;;;;9.90;3.42;;;25.10;99.90;;;;;;5014336;28;20541;-48
2023/04/28 09:34:50;;;;;;;8.95;2.90;;;25.10;99.90;;;;;;5016766;28;20460;-48
2023/04/28 09:37:18;;;;;;;10.68;3.00;;;25.10;99.90;;;;;;5015049;28;20540;-47
2023/04/28 09:39:46;;;;;;;11.27;5.60;;;25.10;99.90;;;;;;5013638;28;20026;-48
2023/04/28 09:42:34;;;;;;;11.93;4.00;;;25.10;99.90;;;;;;5015018;28;20488;-47
2023/04/28 09:45:02;;;;;;;13.20;7.80;;;25.10;99.90;;;;;;5015251;28;20030;-48
2023/04/28 09:47:28;;;;;;;11.15;3.63;;;25.10;99.90;;;;;;5017449;28;20053;-48
2023/04/28 09:50:00;;;;;;;14.23;3.75;;;25.10;99.90;;;;;;5011837;28;20018;-47
2023/04/28 09:52:26;;;;;;;9.10;3.53;;;25.20;99.90;;;;;;5013984;28;20034;-47
2023/04/28 09:54:54;;;;;;;9.57;3.92;;;25.20;99.90;;;;;;5014947;28;20032;-47
2023/04/28 09:57:21;;;;;;;8.68;3.03;;;25.30;99.90;;;;;;5013840;28;20400;-47
2023/04/28 09:59:51;;;;;;;9.55;3.72;;;25.30;99.90;;;;;;5014090;28;20037;-47
2023/04/28 10:02:19;;;;;;;11.05;5.82;;;25.40;99.90;;;;;;5012866;28;20044;-47
2023/04/28 10:04:47;;;;;;;13.02;5.18;;;25.40;99.90;;;;;;5016786;28;20024;-47
2023/04/28 10:07:15;;;;;;;9.95;3.38;;;25.50;99.90;;;;;;5011650;28;20116;-48
2023/04/28 10:09:46;;;;;;;7.55;3.17;;;25.50;99.90;;;;;;5015007;28;20040;-48
2023/04/28 10:12:16;;;;;;;13.27;5.93;;;25.50;99.90;;;;;;5013695;28;20472;-48
2023/04/28 10:14:43;;;;;;;14.70;6.22;;;25.60;99.90;;;;;;5019796;28;20449;-48
2023/04/28 10:17:12;;;;;;;10.43;4.80;;;25.60;99.90;;;;;;5012570;28;20029;-47
2023/04/28 10:19:40;;;;;;;8.57;3.63;;;25.60;99.90;;;;;;5013277;28;20029;-47
2023/04/28 10:22:15;;;;;;;6.80;2.85;;;25.60;99.90;;;;;;5014884;28;20022;-47
2023/04/28 10:25:11;;;;;;;9.35;3.58;;;25.70;99.90;;;;;;5010764;28;20104;-48
2023/04/28 10:27:43;;;;;;;9.90;3.05;;;25.70;99.90;;;;;;5012007;28;20030;-48
2023/04/28 10:30:10;;;;;;;7.47;3.70;;;25.70;99.90;;;;;;5014644;28;20026;-48
2023/04/28 10:32:36;;;;;;;;;;;25.80;99.90;;;;;;5011468;28;20117;-48
2023/04/28 10:35:36;;;;;;;6.38;2.88;;;25.80;99.90;;;;;;5014206;28;20003;-47
2023/04/28 10:38:12;;;;;;;5.90;3.08;;;25.80;99.90;;;;;;4980224;28;20099;-48
2023/04/28 10:40:48;;;;;;;11.48;3.03;;;25.90;99.90;;;;;;5010581;28;20510;-47
2023/04/28 10:43:32;;;;;;;8.00;3.03;;;25.90;99.90;;;;;;5013303;28;20618;-48
2023/04/28 10:46:00;;;;;;;6.28;2.58;;;26.00;99.90;;;;;;5015839;28;20311;-47
2023/04/28 10:48:25;;;;;;;;;;;26.00;99.90;;;;;;5015643;28;20034;-47
2023/04/28 10:51:03;;;;;;;4.40;2.38;;;26.10;99.90;;;;;;5011566;28;19936;-48
2023/04/28 10:53:44;;;;;;;7.35;3.00;;;26.10;99.90;;;;;;5015141;28;20551;-47
2023/04/28 10:56:20;;;;;;;9.30;2.90;;;26.10;99.90;;;;;;5013563;28;20116;-48
2023/04/28 10:58:48;;;;;;;5.45;1.77;;;26.10;99.90;;;;;;5010738;28;20041;-47
2023/04/28 11:01:30;;;;;;;5.78;1.50;;;26.20;99.90;;;;;;5014092;28;20073;-47
2023/04/28 11:04:06;;;;;;;4.95;1.88;;;26.20;99.90;;;;;;5010574;28;20018;-47
2023/04/28 11:06:39;;;;;;;3.92;2.10;;;26.30;99.90;;;;;;5012255;28;20045;-47
2023/04/28 11:09:14;;;;;;;6.88;2.25;;;26.30;99.90;;;;;;5011445;28;20026;-48
2023/04/28 11:11:58;;;;;;;4.72;2.10;;;26.30;99.90;;;;;;5013166;28;20048;-47
2023/04/28 11:14:24;;;;;;;7.70;1.60;;;26.30;99.90;;;;;;5025429;28;20023;-47
2023/04/28 11:16:55;;;;;;;2.58;1.58;;;26.40;99.90;;;;;;5008432;28;20526;-48
2023/04/28 11:19:23;;;;;;;6.28;1.80;;;26.40;99.90;;;;;;5012962;28;20026;-47
2023/04/28 11:21:50;;;;;;;6.15;2.10;;;26.40;99.90;;;;;;5012078;28;20034;-48
2023/04/28 11:24:16;;;;;;;7.72;3.10;;;26.40;99.90;;;;;;5011845;28;20558;-48
2023/04/28 11:26:43;;;;;;;6.97;3.08;;;26.40;99.90;;;;;;5009429;28;20132;-49
2023/04/28 11:29:10;;;;;;;8.40;2.83;;;26.40;99.90;;;;;;5013587;28;20041;-47
2023/04/28 11:31:36;;;;;;;6.93;2.20;;;26.40;99.90;;;;;;5013804;28;20388;-46
2023/04/28 11:34:05;;;;;;;5.18;2.20;;;26.50;99.90;;;;;;5016077;28;20046;-48
2023/04/28 11:36:39;;;;;;;10.32;2.92;;;26.50;99.90;;;;;;5012119;28;20385;-49
2023/04/28 11:39:07;;;;;;;8.82;2.40;;;26.50;99.90;;;;;;5010040;28;20387;-48
2023/04/28 11:41:35;;;;;;;7.00;2.17;;;26.50;99.90;;;;;;5010730;28;20021;-47
2023/04/28 11:44:08;;;;;;;;;;;26.50;99.90;;;;;;5013302;28;20021;-46
2023/04/28 11:46:34;;;;;;;13.25;4.13;;;26.50;99.90;;;;;;5012128;28;19928;-46
2023/04/28 11:49:04;;;;;;;7.65;2.78;;;26.50;99.90;;;;;;5010402;28;20018;-47
2023/04/28 11:51:33;;;;;;;6.72;2.53;;;26.50;99.90;;;;;;5014703;28;20036;-47
2023/04/28 11:54:00;;;;;;;9.35;2.45;;;26.50;99.90;;;;;;5008152;28;20564;-47
2023/04/28 11:56:27;;;;;;;8.55;2.08;;;26.50;99.90;;;;;;5017618;28;20044;-48
2023/04/28 11:59:03;;;;;;;8.97;2.43;;;26.50;99.90;;;;;;5018448;28;20513;-48
2023/04/28 12:01:30;;;;;;;9.18;2.10;;;26.50;99.90;;;;;;5022465;28;20503;-47
2023/04/28 12:03:56;;;;;;;4.90;2.33;;;26.60;99.90;;;;;;5017784;28;20033;-47
2023/04/28 12:06:22;;;;;;;5.75;2.00;;;26.60;99.90;;;;;;5013866;28;20777;-47
2023/04/28 12:08:48;;;;;;;11.80;2.03;;;26.60;99.90;;;;;;5017509;28;20021;-47
2023/04/28 12:11:14;;;;;;;6.65;3.40;;;26.60;99.90;;;;;;5018185;28;20018;-47
2023/04/28 12:13:40;;;;;;;9.80;2.78;;;26.70;99.90;;;;;;5021905;28;20087;-48
2023/04/28 12:16:07;;;;;;;13.63;4.72;;;26.60;99.90;;;;;;5018814;28;20029;-47
2023/04/28 12:18:35;;;;;;;9.35;2.22;;;26.60;99.90;;;;;;5017097;28;20017;-46
2023/04/28 12:21:01;;;;;;;;;;;26.70;99.90;;;;;;5019188;28;20029;-47
2023/04/28 12:23:34;;;;;;;7.75;1.92;;;26.70;99.90;;;;;;5014614;28;19906;-47
2023/04/28 12:26:01;;;;;;;5.60;2.67;;;26.70;99.90;;;;;;5009135;28;20061;-48
2023/04/28 12:28:40;;;;;;;10.27;2.50;;;26.70;99.90;;;;;;5013580;28;20025;-47
2023/04/28 12:31:07;;;;;;;10.88;2.70;;;26.60;99.90;;;;;;5014739;28;20511;-46
2023/04/28 12:33:36;;;;;;;7.10;2.97;;;26.60;99.90;;;;;;5012052;28;20030;-47
2023/04/28 12:36:03;;;;;;;13.63;2.92;;;26.50;99.90;;;;;;5017137;28;20033;-48
2023/04/28 12:38:29;;;;;;;8.20;3.17;;;26.40;99.90;;;;;;5014962;28;20104;-47
2023/04/28 12:40:55;;;;;;;9.60;2.38;;;26.30;99.90;;;;;;5014368;28;20113;-47
2023/04/28 12:43:22;;;;;;;8.55;2.78;;;26.20;99.90;;;;;;5012961;28;20478;-47
2023/04/28 12:45:53;;;;;;;7.82;2.97;;;26.20;99.90;;;;;;5012522;28;20080;-47
2023/04/28 12:48:19;;;;;;;9.63;3.15;;;26.10;99.90;;;;;;5012350;28;20476;-47